x

Galveston,tx - 22 Nm East Of Galveston, Tx (42035) Wave Buoy

1:50am - Thu 28th May 2015 All times are CDT. -5 hours from GMT.

  • Sig Wave height 3.0ft
  • Swell Direction
  • Peak Period 6s
  • Average Period 5s
  • Wind
    13mph, 16mph gusts
  • Sea Temp 80°f
  • Air Temp 79°f
  • Sea Pressure 1016.8mb
  • Galveston,tx -  22 Nm East Of Galveston, Tx
  • Galveston,tx -  22 Nm East Of Galveston, Tx

More Historic Weather Station data

Upgrade to MSW Pro to gain access to the past 30 days of data for over 8000 Wavebouys and Weather Stations around the globe.

Join Pro

Comparision Forecast

View Surf forecast
   
Thu 05/28 1:50am 3ft 6s 5s 13 16 mph 1016.8mb 80f 79f
12:50am 2.5ft 6s 4s 11 13 mph 1017.5mb 80f 79f
Wed 05/27 11:50pm 3ft 6s 4s 11 13 mph 1017.7mb 80f 79f
10:50pm 2.5ft 6s 4s 13 16 mph 1017.7mb 80f 79f
9:50pm 3ft 7s 4s 11 13 mph 1017.7mb 80f 79f
8:50pm 2.5ft 6s 4s 11 13 mph 1017.3mb 80f 78f
7:50pm 2.5ft 7s 4s 13 16 mph 1016.8mb 80f 79f
6:50pm 2.5ft 7s 4s 11 13 mph 1016.3mb 81f 79f
5:50pm 2.5ft 6s 4s 11 13 mph 1016.6mb 81f 79f
4:50pm 3ft 6s 4s 11 13 mph 1016.7mb 81f 79f
3:50pm 3ft 4s 4s 13 16 mph 1017.2mb 81f 78f
2:50pm 3.5ft 4s 4s 16 18 mph 1017.2mb 81f 79f
1:50pm 3ft 8s 4s 18 20 mph 1017.5mb 80f 78f
12:50pm 3.5ft 8s 4s 20 25 mph 1017.8mb 80f 77f
11:50am 3.5ft 8s 4s 18 20 mph 1018.4mb 80f 76f
10:50am 3.5ft 4s 4s 18 20 mph 1019.6mb 80f 74f
9:50am 4.5ft 5s 4s 20 25 mph 1020.4mb 80f 73f
8:50am  -   -   -  25 29 mph 1020.1mb 80f 71f
7:50am 3.5ft 8s 4s 31 36 mph 1018.6mb 80f 71f
6:50am 3.5ft 7s 5s 9
mph
1017.2mb 80f 80f
5:50am 4ft 7s 5s 9 11 mph 1016.6mb 80f 80f
4:50am 3.5ft 7s 5s 16 18 mph 1015mb 80f 80f
3:50am 4ft 7s 5s 11 13 mph 1015.8mb 80f 80f
2:50am 4.5ft 7s 5s 13 18 mph 1016mb 80f 80f
1:50am 4.5ft 7s 5s 16 18 mph 1016mb 80f 80f
12:50am 4.5ft 7s 5s 18 22 mph 1015.9mb 80f 80f
Tue 05/26 11:50pm 4.5ft 7s 5s 20 22 mph 1015.9mb 80f 80f
10:50pm 4.5ft 7s 5s 20 25 mph 1016.5mb 80f 80f
9:50pm 5ft 7s 5s 20 22 mph 1015.9mb 80f 80f
8:50pm 4.5ft 7s 5s 20 25 mph 1015.1mb 80f 80f
7:50pm 4.5ft 6s 5s 20 25 mph 1015mb 80f 80f
6:50pm 4.5ft 7s 5s 20 25 mph 1014.9mb 81f 80f
5:50pm 5ft 7s 5s 18 22 mph 1015.4mb 80f 80f
4:50pm 4.5ft 7s 5s 16 20 mph 1015.9mb 80f 80f
3:50pm 5ft 7s 5s 18 22 mph 1016.2mb 80f 80f
2:50pm 4.5ft 7s 5s 20 22 mph 1016.5mb 80f 80f
1:50pm 4.5ft 6s 5s 20 22 mph 1016.5mb 80f 79f
12:50pm 5ft 7s 5s 18 20 mph 1016.8mb 80f 79f
11:50am 4.5ft 6s 4s 18 22 mph 1016.6mb 80f 78f
10:50am 4.5ft 7s 5s 20 22 mph 1016.1mb 80f 78f
9:50am 4.5ft 7s 5s 20 25 mph 1015.8mb 80f 77f
8:50am 4ft 7s 4s 20 22 mph 1016.2mb 80f 76f
7:50am 4ft 7s 4s 20 22 mph 1015.4mb 80f 76f
6:50am 3.5ft 7s 4s 18 22 mph 1015.2mb 80f 76f
5:50am 3.5ft 7s 5s 18 20 mph 1015.2mb 80f 74f
4:50am 3.5ft 7s 5s 16 20 mph 1014.9mb 80f 75f
3:50am 4.5ft 7s 4s 13 18 mph 1015.2mb 80f 74f
2:50am 4.5ft 5s 4s 31 38 mph 1015.8mb 80f 73f
1:50am 5ft 5s 4s 34 40 mph 1015.8mb 80f 72f
12:50am 4ft 7s 4s 29 36 mph 1016.7mb 80f 70f
Mon 05/25 11:50pm 4ft 6s 5s 13 16 mph 1015.2mb 80f 81f
10:50pm 4ft 6s 4s 16 18 mph 1014.4mb 80f 81f
9:50pm 4ft 7s 4s 20 25 mph 1012.1mb 80f 81f
8:50pm 4ft 6s 5s 16 20 mph 1012.4mb 81f 81f
7:50pm 4.5ft 5s 4s 18 22 mph 1011.3mb 81f 81f
6:50pm 4.5ft 6s 4s 20 25 mph 1010.3mb 81f 81f
5:50pm 3.5ft 6s 4s 20 25 mph 1010mb 81f 81f
4:50pm 4ft 6s 4s 20 25 mph 1010.5mb 81f 81f
3:50pm 3.5ft 5s 4s 20 25 mph 1011.2mb 81f 81f
2:50pm 3.5ft 7s 4s 18 20 mph 1012.8mb 81f 81f
1:50pm 3.5ft 5s 4s 18 20 mph 1013.8mb 81f 80f
12:50pm 3.5ft 7s 4s 16 20 mph 1014.5mb 80f 80f
11:50am 3.5ft 7s 4s 16 20 mph 1014.8mb 80f 80f
10:50am 3.5ft 7s 4s 16 20 mph 1014.7mb 79f 80f
9:50am 3.5ft 7s 4s 18 20 mph 1014.7mb 79f 80f
8:50am 3.5ft 7s 4s 16 18 mph 1014.5mb 79f 80f
7:50am 3.5ft 6s 4s 16 20 mph 1014.3mb 79f 79f
6:50am 3.5ft 7s 4s 16 20 mph 1013.8mb 79f 79f
5:50am 3.5ft 7s 5s 16 18 mph 1013.4mb 79f 79f
4:50am 3.5ft 7s 5s 11 13 mph 1013.2mb 79f 78f
3:50am 3.5ft 7s 5s 11 16 mph 1013mb 79f 78f
2:50am 3.5ft 7s 5s 13 16 mph 1013.1mb 79f 78f
1:50am 3.5ft 5s 4s 16 18 mph 1013.5mb 79f 78f
12:50am 3.5ft 7s 5s 16 20 mph 1013.9mb 79f 78f
Sun 05/24 11:50pm 3.5ft 7s 5s 13 16 mph 1014mb 79f 78f
10:50pm 4ft 7s 5s 13 18 mph 1014.1mb 79f 78f
9:50pm 3.5ft 6s 5s 13 16 mph 1013.4mb 79f 78f
8:50pm 3.5ft 7s 5s 11 13 mph 1012.8mb 79f 78f
7:50pm 4ft 7s 5s 16 18 mph 1012.5mb 79f 78f
6:50pm 3.5ft 7s 5s 16 20 mph 1012.3mb 79f 78f
5:50pm 4.5ft 7s 5s 4 7 mph 1012.8mb 79f 77f
4:50pm 4.5ft 6s 5s 7 9 mph 1012.9mb 79f 77f
3:50pm 5ft 7s 5s 9 11 mph 1012.2mb 80f 76f
2:50pm 5ft 5s 5s 16 20 mph 1012.4mb 80f 76f
1:50pm 5.5ft 7s 5s 22 29 mph 1013.1mb 80f 76f
12:50pm 5ft 7s 5s 20 27 mph - 80f 75f
8:50am 5ft 7s 5s 20 27 mph 1014.8mb 80f 74f